sensor_id;sensor_type;location;lat;lon;timestamp;temperature;humidity
32476;DHT22;18929;48.008;10.882;2024-01-11T00:01:08;-1.40;99.90
32476;DHT22;18929;48.008;10.882;2024-01-11T00:03:35;-2.00;99.90
32476;DHT22;18929;48.008;10.882;2024-01-11T00:06:03;-1.50;99.90
32476;DHT22;18929;48.008;10.882;2024-01-11T00:08:30;-1.90;99.90
32476;DHT22;18929;48.008;10.882;2024-01-11T00:10:57;-2.90;99.90
32476;DHT22;18929;48.008;10.882;2024-01-11T00:13:24;-2.90;99.90
32476;DHT22;18929;48.008;10.882;2024-01-11T00:15:51;-2.80;99.90
32476;DHT22;18929;48.008;10.882;2024-01-11T00:18:18;-2.20;99.90
32476;DHT22;18929;48.008;10.882;2024-01-11T00:20:45;-1.80;99.90
32476;DHT22;18929;48.008;10.882;2024-01-11T00:23:13;-1.40;99.90
32476;DHT22;18929;48.008;10.882;2024-01-11T00:25:40;-1.30;99.90
32476;DHT22;18929;48.008;10.882;2024-01-11T00:28:07;-2.30;99.90
32476;DHT22;18929;48.008;10.882;2024-01-11T00:30:34;-2.00;99.90
32476;DHT22;18929;48.008;10.882;2024-01-11T00:33:01;-2.20;99.90
32476;DHT22;18929;48.008;10.882;2024-01-11T00:35:28;-2.50;99.90
32476;DHT22;18929;48.008;10.882;2024-01-11T00:37:55;-2.80;99.90
32476;DHT22;18929;48.008;10.882;2024-01-11T00:40:23;-2.70;99.90
32476;DHT22;18929;48.008;10.882;2024-01-11T00:42:50;-3.20;99.90
32476;DHT22;18929;48.008;10.882;2024-01-11T00:45:17;-3.30;99.90
32476;DHT22;18929;48.008;10.882;2024-01-11T00:47:43;-3.10;99.90
32476;DHT22;18929;48.008;10.882;2024-01-11T00:50:10;-3.00;99.90
32476;DHT22;18929;48.008;10.882;2024-01-11T00:52:45;-2.40;99.90
32476;DHT22;18929;48.008;10.882;2024-01-11T00:55:12;-1.80;99.90
32476;DHT22;18929;48.008;10.882;2024-01-11T00:57:40;-1.90;99.90
32476;DHT22;18929;48.008;10.882;2024-01-11T01:00:08;-1.40;99.90
32476;DHT22;18929;48.008;10.882;2024-01-11T01:02:38;-1.30;99.90
32476;DHT22;18929;48.008;10.882;2024-01-11T01:05:05;-1.10;99.90
32476;DHT22;18929;48.008;10.882;2024-01-11T01:07:33;-1.10;99.90
32476;DHT22;18929;48.008;10.882;2024-01-11T01:10:00;-1.00;99.90
32476;DHT22;18929;48.008;10.882;2024-01-11T01:12:27;-0.90;99.90
32476;DHT22;18929;48.008;10.882;2024-01-11T01:14:55;-0.90;99.90
32476;DHT22;18929;48.008;10.882;2024-01-11T01:17:22;-1.00;99.90
32476;DHT22;18929;48.008;10.882;2024-01-11T01:19:49;-1.40;99.90
32476;DHT22;18929;48.008;10.882;2024-01-11T01:22:16;-1.10;99.90
32476;DHT22;18929;48.008;10.882;2024-01-11T01:24:43;-1.60;99.90
32476;DHT22;18929;48.008;10.882;2024-01-11T01:27:10;-2.00;99.90
32476;DHT22;18929;48.008;10.882;2024-01-11T01:29:37;-2.80;99.90
32476;DHT22;18929;48.008;10.882;2024-01-11T01:32:05;-3.10;99.90
32476;DHT22;18929;48.008;10.882;2024-01-11T01:34:32;-3.40;99.90
32476;DHT22;18929;48.008;10.882;2024-01-11T01:36:59;-3.20;99.90
32476;DHT22;18929;48.008;10.882;2024-01-11T01:39:26;-2.30;99.90
32476;DHT22;18929;48.008;10.882;2024-01-11T01:41:53;-2.50;99.90
32476;DHT22;18929;48.008;10.882;2024-01-11T01:44:20;-3.10;99.90
32476;DHT22;18929;48.008;10.882;2024-01-11T01:46:47;-2.90;99.90
32476;DHT22;18929;48.008;10.882;2024-01-11T01:49:15;-2.60;99.90
32476;DHT22;18929;48.008;10.882;2024-01-11T01:51:47;-2.20;99.90
32476;DHT22;18929;48.008;10.882;2024-01-11T01:54:15;-1.90;99.90
32476;DHT22;18929;48.008;10.882;2024-01-11T01:56:42;-2.00;99.90
32476;DHT22;18929;48.008;10.882;2024-01-11T01:59:08;-3.60;99.90
32476;DHT22;18929;48.008;10.882;2024-01-11T02:01:36;-3.90;99.90
32476;DHT22;18929;48.008;10.882;2024-01-11T02:04:03;-3.80;99.90
32476;DHT22;18929;48.008;10.882;2024-01-11T02:06:31;-2.50;99.90
32476;DHT22;18929;48.008;10.882;2024-01-11T02:08:59;-3.10;99.90
32476;DHT22;18929;48.008;10.882;2024-01-11T02:11:28;-2.40;99.90
32476;DHT22;18929;48.008;10.882;2024-01-11T02:13:58;-3.50;99.90
32476;DHT22;18929;48.008;10.882;2024-01-11T02:16:25;-3.70;99.90
32476;DHT22;18929;48.008;10.882;2024-01-11T02:18:52;-3.90;99.90
32476;DHT22;18929;48.008;10.882;2024-01-11T02:21:19;-3.30;99.90
32476;DHT22;18929;48.008;10.882;2024-01-11T02:23:55;-3.00;99.90
32476;DHT22;18929;48.008;10.882;2024-01-11T02:26:23;-3.40;99.90
32476;DHT22;18929;48.008;10.882;2024-01-11T02:28:50;-2.60;99.90
32476;DHT22;18929;48.008;10.882;2024-01-11T02:31:17;-2.70;99.90
32476;DHT22;18929;48.008;10.882;2024-01-11T02:33:44;-2.30;99.90
32476;DHT22;18929;48.008;10.882;2024-01-11T02:36:11;-2.50;99.90
32476;DHT22;18929;48.008;10.882;2024-01-11T02:38:39;-3.40;99.90
32476;DHT22;18929;48.008;10.882;2024-01-11T02:41:09;-3.60;99.90
32476;DHT22;18929;48.008;10.882;2024-01-11T02:43:38;-4.20;99.90
32476;DHT22;18929;48.008;10.882;2024-01-11T02:46:05;-4.10;99.90
32476;DHT22;18929;48.008;10.882;2024-01-11T02:48:32;-3.10;99.90
32476;DHT22;18929;48.008;10.882;2024-01-11T02:50:59;-3.20;99.90
32476;DHT22;18929;48.008;10.882;2024-01-11T02:53:26;-3.60;99.90
32476;DHT22;18929;48.008;10.882;2024-01-11T02:55:53;-3.40;99.90
32476;DHT22;18929;48.008;10.882;2024-01-11T02:58:22;-3.80;99.90
32476;DHT22;18929;48.008;10.882;2024-01-11T03:00:49;-4.10;99.90
32476;DHT22;18929;48.008;10.882;2024-01-11T03:03:16;-4.60;99.90
32476;DHT22;18929;48.008;10.882;2024-01-11T03:05:43;-3.80;99.90
32476;DHT22;18929;48.008;10.882;2024-01-11T03:08:10;-3.40;99.90
32476;DHT22;18929;48.008;10.882;2024-01-11T03:13:42;-2.70;99.90
32476;DHT22;18929;48.008;10.882;2024-01-11T03:16:09;-4.00;99.90
32476;DHT22;18929;48.008;10.882;2024-01-11T03:18:36;-4.40;99.90
32476;DHT22;18929;48.008;10.882;2024-01-11T03:21:03;-4.20;99.90
32476;DHT22;18929;48.008;10.882;2024-01-11T03:23:30;-4.20;99.90
32476;DHT22;18929;48.008;10.882;2024-01-11T03:25:57;-3.40;99.90
32476;DHT22;18929;48.008;10.882;2024-01-11T03:28:24;-3.80;99.90
32476;DHT22;18929;48.008;10.882;2024-01-11T03:30:52;-3.60;99.90
32476;DHT22;18929;48.008;10.882;2024-01-11T03:33:20;-3.80;99.90
32476;DHT22;18929;48.008;10.882;2024-01-11T03:35:46;-3.20;99.90
32476;DHT22;18929;48.008;10.882;2024-01-11T03:38:13;-2.60;99.90
32476;DHT22;18929;48.008;10.882;2024-01-11T03:40:40;-3.20;99.90
32476;DHT22;18929;48.008;10.882;2024-01-11T03:43:07;-2.90;99.90
32476;DHT22;18929;48.008;10.882;2024-01-11T03:45:34;-2.50;99.90
32476;DHT22;18929;48.008;10.882;2024-01-11T03:48:01;-1.90;99.90
32476;DHT22;18929;48.008;10.882;2024-01-11T03:50:28;-2.30;99.90
32476;DHT22;18929;48.008;10.882;2024-01-11T03:52:56;-1.70;99.90
32476;DHT22;18929;48.008;10.882;2024-01-11T03:55:22;-1.60;99.90
32476;DHT22;18929;48.008;10.882;2024-01-11T03:57:50;-1.40;99.90
32476;DHT22;18929;48.008;10.882;2024-01-11T04:00:18;-1.60;99.90
32476;DHT22;18929;48.008;10.882;2024-01-11T04:02:45;-1.40;99.90
32476;DHT22;18929;48.008;10.882;2024-01-11T04:05:13;-1.30;99.90
32476;DHT22;18929;48.008;10.882;2024-01-11T04:07:41;-1.40;99.90
32476;DHT22;18929;48.008;10.882;2024-01-11T04:10:08;-1.40;99.90
32476;DHT22;18929;48.008;10.882;2024-01-11T04:12:36;-2.30;99.90
32476;DHT22;18929;48.008;10.882;2024-01-11T04:15:03;-2.50;99.90
32476;DHT22;18929;48.008;10.882;2024-01-11T04:17:30;-2.00;99.90
32476;DHT22;18929;48.008;10.882;2024-01-11T04:19:57;-2.90;99.90
32476;DHT22;18929;48.008;10.882;2024-01-11T04:22:25;-1.90;99.90
32476;DHT22;18929;48.008;10.882;2024-01-11T04:24:54;-1.90;99.90
32476;DHT22;18929;48.008;10.882;2024-01-11T04:27:21;-1.90;99.90
32476;DHT22;18929;48.008;10.882;2024-01-11T04:29:48;-1.50;99.90
32476;DHT22;18929;48.008;10.882;2024-01-11T04:32:15;-1.60;99.90
32476;DHT22;18929;48.008;10.882;2024-01-11T04:34:42;-1.60;99.90
32476;DHT22;18929;48.008;10.882;2024-01-11T04:37:09;-1.60;99.90
32476;DHT22;18929;48.008;10.882;2024-01-11T04:39:53;-1.60;99.90
32476;DHT22;18929;48.008;10.882;2024-01-11T04:42:20;-1.50;99.90
32476;DHT22;18929;48.008;10.882;2024-01-11T04:44:47;-1.40;99.90
32476;DHT22;18929;48.008;10.882;2024-01-11T04:47:14;-1.40;99.90
32476;DHT22;18929;48.008;10.882;2024-01-11T04:49:41;-1.30;99.90
32476;DHT22;18929;48.008;10.882;2024-01-11T04:52:06;-1.70;99.90
32476;DHT22;18929;48.008;10.882;2024-01-11T04:54:34;-2.40;99.90
32476;DHT22;18929;48.008;10.882;2024-01-11T04:57:02;-2.10;99.90
32476;DHT22;18929;48.008;10.882;2024-01-11T04:59:29;-1.70;99.90
32476;DHT22;18929;48.008;10.882;2024-01-11T05:01:56;-1.70;99.90
32476;DHT22;18929;48.008;10.882;2024-01-11T05:04:23;-1.40;99.90
32476;DHT22;18929;48.008;10.882;2024-01-11T05:06:50;-2.40;99.90
32476;DHT22;18929;48.008;10.882;2024-01-11T05:09:17;-3.00;99.90
32476;DHT22;18929;48.008;10.882;2024-01-11T05:11:44;-2.20;99.90
32476;DHT22;18929;48.008;10.882;2024-01-11T05:14:12;-1.90;99.90
32476;DHT22;18929;48.008;10.882;2024-01-11T05:16:39;-2.20;99.90
32476;DHT22;18929;48.008;10.882;2024-01-11T05:19:07;-1.70;99.90
32476;DHT22;18929;48.008;10.882;2024-01-11T05:21:34;-1.90;99.90
32476;DHT22;18929;48.008;10.882;2024-01-11T05:24:04;-1.70;99.90
32476;DHT22;18929;48.008;10.882;2024-01-11T05:26:31;-1.60;99.90
32476;DHT22;18929;48.008;10.882;2024-01-11T05:28:58;-1.70;99.90
32476;DHT22;18929;48.008;10.882;2024-01-11T05:31:27;-1.70;99.90
32476;DHT22;18929;48.008;10.882;2024-01-11T05:33:53;-3.10;99.90
32476;DHT22;18929;48.008;10.882;2024-01-11T05:36:20;-2.20;99.90
32476;DHT22;18929;48.008;10.882;2024-01-11T05:38:48;-1.80;99.90
32476;DHT22;18929;48.008;10.882;2024-01-11T05:41:15;-1.70;99.90
32476;DHT22;18929;48.008;10.882;2024-01-11T05:43:42;-1.60;99.90
32476;DHT22;18929;48.008;10.882;2024-01-11T05:46:09;-1.60;99.90
32476;DHT22;18929;48.008;10.882;2024-01-11T05:48:38;-1.70;99.90
32476;DHT22;18929;48.008;10.882;2024-01-11T05:51:04;-1.70;99.90
32476;DHT22;18929;48.008;10.882;2024-01-11T05:53:31;-1.70;99.90
32476;DHT22;18929;48.008;10.882;2024-01-11T05:56:00;-1.70;99.90
32476;DHT22;18929;48.008;10.882;2024-01-11T05:58:28;-1.50;99.90
32476;DHT22;18929;48.008;10.882;2024-01-11T06:00:55;-2.90;99.90
32476;DHT22;18929;48.008;10.882;2024-01-11T06:03:22;-2.00;99.90
32476;DHT22;18929;48.008;10.882;2024-01-11T06:05:54;-1.70;99.90
32476;DHT22;18929;48.008;10.882;2024-01-11T06:08:24;-1.60;99.90
32476;DHT22;18929;48.008;10.882;2024-01-11T06:10:51;-1.40;99.90
32476;DHT22;18929;48.008;10.882;2024-01-11T06:13:18;-1.30;99.90
32476;DHT22;18929;48.008;10.882;2024-01-11T06:15:45;-1.60;99.90
32476;DHT22;18929;48.008;10.882;2024-01-11T06:18:12;-2.40;99.90
32476;DHT22;18929;48.008;10.882;2024-01-11T06:20:39;-1.80;99.90
32476;DHT22;18929;48.008;10.882;2024-01-11T06:23:07;-1.60;99.90
32476;DHT22;18929;48.008;10.882;2024-01-11T06:25:34;-1.40;99.90
32476;DHT22;18929;48.008;10.882;2024-01-11T06:28:02;-1.30;99.90
32476;DHT22;18929;48.008;10.882;2024-01-11T06:30:29;-1.40;99.90
32476;DHT22;18929;48.008;10.882;2024-01-11T06:32:56;-1.40;99.90
32476;DHT22;18929;48.008;10.882;2024-01-11T06:35:23;-1.40;99.90
32476;DHT22;18929;48.008;10.882;2024-01-11T06:37:50;-1.40;99.90
32476;DHT22;18929;48.008;10.882;2024-01-11T06:40:18;-1.40;99.90
32476;DHT22;18929;48.008;10.882;2024-01-11T06:42:45;-1.40;99.90
32476;DHT22;18929;48.008;10.882;2024-01-11T06:45:12;-1.40;99.90
32476;DHT22;18929;48.008;10.882;2024-01-11T06:50:12;-1.50;99.90
32476;DHT22;18929;48.008;10.882;2024-01-11T06:52:39;-1.50;99.90
32476;DHT22;18929;48.008;10.882;2024-01-11T06:55:07;-1.60;99.90
32476;DHT22;18929;48.008;10.882;2024-01-11T06:57:35;-2.00;99.90
32476;DHT22;18929;48.008;10.882;2024-01-11T07:00:03;-2.90;99.90
32476;DHT22;18929;48.008;10.882;2024-01-11T07:02:30;-3.50;99.90
32476;DHT22;18929;48.008;10.882;2024-01-11T07:04:57;-2.80;99.90
32476;DHT22;18929;48.008;10.882;2024-01-11T07:07:24;-2.50;99.90
32476;DHT22;18929;48.008;10.882;2024-01-11T07:09:52;-2.50;99.90
32476;DHT22;18929;48.008;10.882;2024-01-11T07:12:21;-1.90;99.90
32476;DHT22;18929;48.008;10.882;2024-01-11T07:14:49;-2.20;99.90
32476;DHT22;18929;48.008;10.882;2024-01-11T07:17:16;-2.70;99.90
32476;DHT22;18929;48.008;10.882;2024-01-11T07:19:43;-3.00;99.90
32476;DHT22;18929;48.008;10.882;2024-01-11T07:22:10;-2.10;99.90
32476;DHT22;18929;48.008;10.882;2024-01-11T07:24:37;-2.40;99.90
32476;DHT22;18929;48.008;10.882;2024-01-11T07:27:04;-2.00;99.90
32476;DHT22;18929;48.008;10.882;2024-01-11T07:29:31;-1.70;99.90
32476;DHT22;18929;48.008;10.882;2024-01-11T07:32:00;-1.70;99.90
32476;DHT22;18929;48.008;10.882;2024-01-11T07:34:27;-1.70;99.90
32476;DHT22;18929;48.008;10.882;2024-01-11T07:36:54;-1.60;99.90
32476;DHT22;18929;48.008;10.882;2024-01-11T07:39:22;-1.70;99.90
32476;DHT22;18929;48.008;10.882;2024-01-11T07:44:27;-1.80;99.90
32476;DHT22;18929;48.008;10.882;2024-01-11T07:46:54;-1.50;99.90
32476;DHT22;18929;48.008;10.882;2024-01-11T07:49:22;-1.50;99.90
32476;DHT22;18929;48.008;10.882;2024-01-11T07:51:50;-1.40;99.90
32476;DHT22;18929;48.008;10.882;2024-01-11T07:54:17;-1.60;99.90
32476;DHT22;18929;48.008;10.882;2024-01-11T07:56:44;-1.70;99.90
32476;DHT22;18929;48.008;10.882;2024-01-11T07:59:11;-1.70;99.90
32476;DHT22;18929;48.008;10.882;2024-01-11T08:01:39;-1.60;99.90
32476;DHT22;18929;48.008;10.882;2024-01-11T08:04:07;-1.60;99.90
32476;DHT22;18929;48.008;10.882;2024-01-11T08:06:37;-1.40;99.90
32476;DHT22;18929;48.008;10.882;2024-01-11T08:09:04;-1.30;99.90
32476;DHT22;18929;48.008;10.882;2024-01-11T08:14:24;-1.30;99.90
32476;DHT22;18929;48.008;10.882;2024-01-11T08:16:51;-1.50;99.90
32476;DHT22;18929;48.008;10.882;2024-01-11T08:19:28;-1.50;99.90
32476;DHT22;18929;48.008;10.882;2024-01-11T08:21:59;-1.50;99.90
32476;DHT22;18929;48.008;10.882;2024-01-11T08:24:27;-1.40;99.90
32476;DHT22;18929;48.008;10.882;2024-01-11T08:26:54;-1.40;99.90
32476;DHT22;18929;48.008;10.882;2024-01-11T08:31:54;-1.50;99.90
32476;DHT22;18929;48.008;10.882;2024-01-11T08:34:21;-1.70;99.90
32476;DHT22;18929;48.008;10.882;2024-01-11T08:36:48;-1.70;99.90
32476;DHT22;18929;48.008;10.882;2024-01-11T08:39:17;-1.80;99.90
32476;DHT22;18929;48.008;10.882;2024-01-11T08:41:44;-1.60;99.90
32476;DHT22;18929;48.008;10.882;2024-01-11T08:44:11;-1.50;99.90
32476;DHT22;18929;48.008;10.882;2024-01-11T08:46:38;-1.50;99.90
32476;DHT22;18929;48.008;10.882;2024-01-11T08:49:05;-1.30;99.90
32476;DHT22;18929;48.008;10.882;2024-01-11T08:51:32;-3.10;99.90
32476;DHT22;18929;48.008;10.882;2024-01-11T08:53:59;-2.60;99.90
32476;DHT22;18929;48.008;10.882;2024-01-11T08:56:28;-2.10;99.90
32476;DHT22;18929;48.008;10.882;2024-01-11T08:58:55;-1.90;99.90
32476;DHT22;18929;48.008;10.882;2024-01-11T09:01:23;-1.60;99.90
32476;DHT22;18929;48.008;10.882;2024-01-11T09:03:50;-1.50;99.90
32476;DHT22;18929;48.008;10.882;2024-01-11T09:06:17;-2.40;99.90
32476;DHT22;18929;48.008;10.882;2024-01-11T09:08:44;-2.60;99.90
32476;DHT22;18929;48.008;10.882;2024-01-11T09:11:12;-1.90;99.90
32476;DHT22;18929;48.008;10.882;2024-01-11T09:13:40;-2.40;99.90
32476;DHT22;18929;48.008;10.882;2024-01-11T09:16:09;-3.40;99.90
32476;DHT22;18929;48.008;10.882;2024-01-11T09:18:36;-3.10;99.90
32476;DHT22;18929;48.008;10.882;2024-01-11T09:24:02;-4.00;99.90
32476;DHT22;18929;48.008;10.882;2024-01-11T09:26:30;-3.20;99.90
32476;DHT22;18929;48.008;10.882;2024-01-11T09:28:59;-3.00;99.90
32476;DHT22;18929;48.008;10.882;2024-01-11T09:31:26;-2.60;99.90
32476;DHT22;18929;48.008;10.882;2024-01-11T09:33:53;-2.50;99.90
32476;DHT22;18929;48.008;10.882;2024-01-11T09:36:22;-2.00;99.90
32476;DHT22;18929;48.008;10.882;2024-01-11T09:44:29;-3.20;99.90
32476;DHT22;18929;48.008;10.882;2024-01-11T09:46:56;-2.20;99.90
32476;DHT22;18929;48.008;10.882;2024-01-11T09:54:54;-1.70;99.90
32476;DHT22;18929;48.008;10.882;2024-01-11T09:57:22;-1.40;99.90
32476;DHT22;18929;48.008;10.882;2024-01-11T09:59:53;-1.50;99.90
32476;DHT22;18929;48.008;10.882;2024-01-11T10:02:21;-1.50;99.90
32476;DHT22;18929;48.008;10.882;2024-01-11T10:04:48;-2.90;99.90
32476;DHT22;18929;48.008;10.882;2024-01-11T10:07:18;-2.20;99.90
32476;DHT22;18929;48.008;10.882;2024-01-11T10:09:46;-2.80;99.90
32476;DHT22;18929;48.008;10.882;2024-01-11T10:12:13;-2.00;99.90
32476;DHT22;18929;48.008;10.882;2024-01-11T10:17:13;-1.40;99.90
32476;DHT22;18929;48.008;10.882;2024-01-11T10:19:40;-1.20;99.90
32476;DHT22;18929;48.008;10.882;2024-01-11T10:22:08;-1.00;99.90
32476;DHT22;18929;48.008;10.882;2024-01-11T10:27:30;-1.10;99.90
32476;DHT22;18929;48.008;10.882;2024-01-11T10:29:57;-1.20;99.90
32476;DHT22;18929;48.008;10.882;2024-01-11T10:32:28;-1.10;99.90
32476;DHT22;18929;48.008;10.882;2024-01-11T10:34:58;-1.70;99.90
32476;DHT22;18929;48.008;10.882;2024-01-11T10:37:33;-1.50;99.90
32476;DHT22;18929;48.008;10.882;2024-01-11T10:40:02;-1.30;99.90
32476;DHT22;18929;48.008;10.882;2024-01-11T10:42:30;-1.20;99.90
32476;DHT22;18929;48.008;10.882;2024-01-11T10:44:58;-1.20;99.90
32476;DHT22;18929;48.008;10.882;2024-01-11T10:47:28;-1.00;99.90
32476;DHT22;18929;48.008;10.882;2024-01-11T10:49:57;-0.90;99.90
32476;DHT22;18929;48.008;10.882;2024-01-11T10:52:30;-1.70;99.90
32476;DHT22;18929;48.008;10.882;2024-01-11T10:55:03;-1.30;99.90
32476;DHT22;18929;48.008;10.882;2024-01-11T10:57:30;-2.00;99.90
32476;DHT22;18929;48.008;10.882;2024-01-11T10:59:58;-1.30;99.90
32476;DHT22;18929;48.008;10.882;2024-01-11T11:02:29;-1.10;99.90
32476;DHT22;18929;48.008;10.882;2024-01-11T11:05:05;-1.20;99.90
32476;DHT22;18929;48.008;10.882;2024-01-11T11:07:35;-0.90;99.90
32476;DHT22;18929;48.008;10.882;2024-01-11T11:12:33;-0.70;99.90
32476;DHT22;18929;48.008;10.882;2024-01-11T11:15:02;-1.80;99.90
32476;DHT22;18929;48.008;10.882;2024-01-11T11:17:30;-2.10;99.90
32476;DHT22;18929;48.008;10.882;2024-01-11T11:19:59;-2.10;99.90
32476;DHT22;18929;48.008;10.882;2024-01-11T11:22:26;-2.60;99.90
32476;DHT22;18929;48.008;10.882;2024-01-11T11:25:02;-2.80;99.90
32476;DHT22;18929;48.008;10.882;2024-01-11T11:27:30;-2.90;99.90
32476;DHT22;18929;48.008;10.882;2024-01-11T11:29:58;-2.40;99.90
32476;DHT22;18929;48.008;10.882;2024-01-11T11:32:36;-1.60;99.90
32476;DHT22;18929;48.008;10.882;2024-01-11T11:35:04;-1.40;99.90
32476;DHT22;18929;48.008;10.882;2024-01-11T11:37:31;-1.30;99.90
32476;DHT22;18929;48.008;10.882;2024-01-11T11:39:58;-1.30;99.90
32476;DHT22;18929;48.008;10.882;2024-01-11T11:42:26;-1.30;99.90
32476;DHT22;18929;48.008;10.882;2024-01-11T11:44:54;-1.30;99.90
32476;DHT22;18929;48.008;10.882;2024-01-11T11:47:23;-1.20;99.90
32476;DHT22;18929;48.008;10.882;2024-01-11T11:49:58;-1.20;99.90
32476;DHT22;18929;48.008;10.882;2024-01-11T11:52:30;-1.00;99.90
32476;DHT22;18929;48.008;10.882;2024-01-11T11:54:57;-1.40;99.90
32476;DHT22;18929;48.008;10.882;2024-01-11T11:57:25;-1.60;99.90
32476;DHT22;18929;48.008;10.882;2024-01-11T11:59:53;-1.70;99.90
32476;DHT22;18929;48.008;10.882;2024-01-11T12:02:24;-1.40;99.90
32476;DHT22;18929;48.008;10.882;2024-01-11T12:04:52;-1.40;99.90
32476;DHT22;18929;48.008;10.882;2024-01-11T12:07:20;-1.40;99.90
32476;DHT22;18929;48.008;10.882;2024-01-11T12:12:26;-2.00;99.90
32476;DHT22;18929;48.008;10.882;2024-01-11T12:14:54;-2.20;99.90
32476;DHT22;18929;48.008;10.882;2024-01-11T12:17:21;-2.80;99.90
32476;DHT22;18929;48.008;10.882;2024-01-11T12:19:48;-2.00;99.90
32476;DHT22;18929;48.008;10.882;2024-01-11T12:22:15;-1.50;99.90
32476;DHT22;18929;48.008;10.882;2024-01-11T12:24:47;-2.60;99.90
32476;DHT22;18929;48.008;10.882;2024-01-11T12:27:13;-3.00;99.90
32476;DHT22;18929;48.008;10.882;2024-01-11T12:29:41;-3.50;99.90
32476;DHT22;18929;48.008;10.882;2024-01-11T12:32:08;-2.70;99.90
32476;DHT22;18929;48.008;10.882;2024-01-11T12:34:55;-1.90;99.90
32476;DHT22;18929;48.008;10.882;2024-01-11T12:37:22;-1.70;99.90
32476;DHT22;18929;48.008;10.882;2024-01-11T12:39:51;-2.60;99.90
32476;DHT22;18929;48.008;10.882;2024-01-11T12:42:23;-1.90;99.90
32476;DHT22;18929;48.008;10.882;2024-01-11T12:44:50;-1.40;99.90
32476;DHT22;18929;48.008;10.882;2024-01-11T12:47:17;-2.10;99.90
32476;DHT22;18929;48.008;10.882;2024-01-11T12:49:44;-2.00;99.90
32476;DHT22;18929;48.008;10.882;2024-01-11T12:52:15;-1.30;99.90
32476;DHT22;18929;48.008;10.882;2024-01-11T12:54:42;-1.20;99.90
32476;DHT22;18929;48.008;10.882;2024-01-11T12:57:12;-1.10;99.90
32476;DHT22;18929;48.008;10.882;2024-01-11T12:59:39;-0.80;99.90
32476;DHT22;18929;48.008;10.882;2024-01-11T13:02:06;-0.60;99.90
32476;DHT22;18929;48.008;10.882;2024-01-11T13:04:33;-0.90;99.90
32476;DHT22;18929;48.008;10.882;2024-01-11T13:07:00;-2.00;99.90
32476;DHT22;18929;48.008;10.882;2024-01-11T13:12:00;-1.20;99.90
32476;DHT22;18929;48.008;10.882;2024-01-11T13:14:28;-1.10;99.90
32476;DHT22;18929;48.008;10.882;2024-01-11T13:16:55;-1.00;99.90
32476;DHT22;18929;48.008;10.882;2024-01-11T13:19:23;-2.40;99.90
32476;DHT22;18929;48.008;10.882;2024-01-11T13:21:56;-2.00;99.90
32476;DHT22;18929;48.008;10.882;2024-01-11T13:24:23;-1.50;99.90
32476;DHT22;18929;48.008;10.882;2024-01-11T13:26:50;-1.00;99.90
32476;DHT22;18929;48.008;10.882;2024-01-11T13:31:53;-0.80;99.90
32476;DHT22;18929;48.008;10.882;2024-01-11T13:34:20;-1.50;99.90
32476;DHT22;18929;48.008;10.882;2024-01-11T13:36:47;-0.90;99.90
32476;DHT22;18929;48.008;10.882;2024-01-11T13:39:14;-0.80;99.90
32476;DHT22;18929;48.008;10.882;2024-01-11T13:41:44;-0.80;99.90
32476;DHT22;18929;48.008;10.882;2024-01-11T13:44:11;-0.70;99.90
32476;DHT22;18929;48.008;10.882;2024-01-11T13:46:38;-0.60;99.90
32476;DHT22;18929;48.008;10.882;2024-01-11T13:49:06;-0.70;99.90
32476;DHT22;18929;48.008;10.882;2024-01-11T13:51:33;-0.70;99.90
32476;DHT22;18929;48.008;10.882;2024-01-11T13:54:08;-0.80;99.90
32476;DHT22;18929;48.008;10.882;2024-01-11T13:56:35;-1.00;99.90
32476;DHT22;18929;48.008;10.882;2024-01-11T14:01:35;-1.20;99.90
32476;DHT22;18929;48.008;10.882;2024-01-11T14:04:02;-0.90;99.90
32476;DHT22;18929;48.008;10.882;2024-01-11T14:06:31;-1.00;99.90
32476;DHT22;18929;48.008;10.882;2024-01-11T14:08:58;-0.90;99.90
32476;DHT22;18929;48.008;10.882;2024-01-11T14:11:25;-0.60;99.90
32476;DHT22;18929;48.008;10.882;2024-01-11T14:13:52;-0.90;99.90
32476;DHT22;18929;48.008;10.882;2024-01-11T14:16:19;-0.70;99.90
32476;DHT22;18929;48.008;10.882;2024-01-11T14:18:47;-0.60;99.90
32476;DHT22;18929;48.008;10.882;2024-01-11T14:21:14;-0.70;99.90
32476;DHT22;18929;48.008;10.882;2024-01-11T14:23:43;-0.50;99.90
32476;DHT22;18929;48.008;10.882;2024-01-11T14:26:10;-0.50;99.90
32476;DHT22;18929;48.008;10.882;2024-01-11T14:28:38;-0.70;99.90
32476;DHT22;18929;48.008;10.882;2024-01-11T14:31:08;-0.80;99.90
32476;DHT22;18929;48.008;10.882;2024-01-11T14:33:36;-1.30;99.90
32476;DHT22;18929;48.008;10.882;2024-01-11T14:36:10;-0.60;99.90
32476;DHT22;18929;48.008;10.882;2024-01-11T14:38:37;-0.60;99.90
32476;DHT22;18929;48.008;10.882;2024-01-11T14:41:06;-0.70;99.90
32476;DHT22;18929;48.008;10.882;2024-01-11T14:43:40;0.10;99.90
32476;DHT22;18929;48.008;10.882;2024-01-11T14:46:07;0.50;99.90
32476;DHT22;18929;48.008;10.882;2024-01-11T14:48:36;-0.60;99.90
32476;DHT22;18929;48.008;10.882;2024-01-11T14:51:03;-0.20;99.90
32476;DHT22;18929;48.008;10.882;2024-01-11T14:53:33;0.50;99.90
32476;DHT22;18929;48.008;10.882;2024-01-11T14:56:00;0.30;99.90
32476;DHT22;18929;48.008;10.882;2024-01-11T14:58:29;-0.80;99.90
32476;DHT22;18929;48.008;10.882;2024-01-11T15:00:57;-0.20;99.90
32476;DHT22;18929;48.008;10.882;2024-01-11T15:03:24;0.10;99.90
32476;DHT22;18929;48.008;10.882;2024-01-11T15:05:52;0.70;99.90
32476;DHT22;18929;48.008;10.882;2024-01-11T15:08:20;0.90;99.90
32476;DHT22;18929;48.008;10.882;2024-01-11T15:10:49;0.80;99.90
32476;DHT22;18929;48.008;10.882;2024-01-11T15:13:18;1.10;99.90
32476;DHT22;18929;48.008;10.882;2024-01-11T15:15:46;0.60;99.90
32476;DHT22;18929;48.008;10.882;2024-01-11T15:18:13;1.10;99.90
32476;DHT22;18929;48.008;10.882;2024-01-11T15:20:40;1.10;99.90
32476;DHT22;18929;48.008;10.882;2024-01-11T15:25:38;1.10;99.90
32476;DHT22;18929;48.008;10.882;2024-01-11T15:28:05;0.90;99.90
32476;DHT22;18929;48.008;10.882;2024-01-11T15:30:32;1.00;99.90
32476;DHT22;18929;48.008;10.882;2024-01-11T15:33:01;0.70;99.90
32476;DHT22;18929;48.008;10.882;2024-01-11T15:35:29;-0.90;99.90
32476;DHT22;18929;48.008;10.882;2024-01-11T15:37:56;-1.20;99.90
32476;DHT22;18929;48.008;10.882;2024-01-11T15:40:23;-0.40;99.90
32476;DHT22;18929;48.008;10.882;2024-01-11T15:42:50;0.30;99.90
32476;DHT22;18929;48.008;10.882;2024-01-11T15:45:17;0.50;99.90
32476;DHT22;18929;48.008;10.882;2024-01-11T15:47:51;-1.00;99.90
32476;DHT22;18929;48.008;10.882;2024-01-11T15:50:19;-1.40;99.90
32476;DHT22;18929;48.008;10.882;2024-01-11T15:52:46;-1.30;99.90
32476;DHT22;18929;48.008;10.882;2024-01-11T15:55:13;-0.40;99.90
32476;DHT22;18929;48.008;10.882;2024-01-11T15:57:41;0.20;99.90
32476;DHT22;18929;48.008;10.882;2024-01-11T16:00:08;0.30;99.90
32476;DHT22;18929;48.008;10.882;2024-01-11T16:02:37;0.00;99.90
32476;DHT22;18929;48.008;10.882;2024-01-11T16:05:06;-0.20;99.90
32476;DHT22;18929;48.008;10.882;2024-01-11T16:07:34;-1.10;99.90
32476;DHT22;18929;48.008;10.882;2024-01-11T16:10:01;-0.60;99.90